createdAt,value
2023-03-30T00:01:43.753Z,99199.97
2023-03-30T00:04:12.321Z,99199.13
2023-03-30T00:06:42.409Z,99191.78
2023-03-30T00:09:10.080Z,99195.06
2023-03-30T00:11:37.942Z,99192.31
2023-03-30T00:14:05.624Z,99190.25
2023-03-30T00:16:33.377Z,99190.16
2023-03-30T00:19:02.445Z,99187.69
2023-03-30T00:21:30.065Z,99184.81
2023-03-30T00:23:57.700Z,99198.59
2023-03-30T00:26:25.458Z,99189.59
2023-03-30T00:28:53.079Z,99191.06
2023-03-30T00:31:20.986Z,99199.22
2023-03-30T00:33:48.760Z,99198.41
2023-03-30T00:36:17.877Z,99186.97
2023-03-30T00:38:46.634Z,99175.84
2023-03-30T00:41:14.627Z,99171.78
2023-03-30T00:44:02.941Z,99179.13
2023-03-30T00:46:32.211Z,99184.56
2023-03-30T00:49:04.074Z,99178.38
2023-03-30T00:51:35.647Z,99162.06
2023-03-30T00:54:08.244Z,99177.91
2023-03-30T00:56:36.405Z,99172.22
2023-03-30T00:59:04.421Z,99179.81
2023-03-30T01:01:38.496Z,99174.38
2023-03-30T01:04:08.567Z,99187.22
2023-03-30T01:06:40.162Z,99182.53
2023-03-30T01:09:08.319Z,99188.34
2023-03-30T01:11:35.986Z,99188.25
2023-03-30T01:14:07.289Z,99196.28
2023-03-30T01:16:45.067Z,99201.88
2023-03-30T01:19:49.244Z,99184.66
2023-03-30T01:22:36.804Z,99167.13
2023-03-30T01:25:49.976Z,99163.28
2023-03-30T01:28:30.916Z,99176.91
2023-03-30T01:31:27.468Z,99194.63
2023-03-30T01:34:20.400Z,99185.06
2023-03-30T01:37:10.291Z,99188.44
2023-03-30T01:39:47.241Z,99180.63
2023-03-30T01:42:23.152Z,99182.28
2023-03-30T01:45:01.184Z,99185.50
2023-03-30T01:47:35.240Z,99191.34
2023-03-30T01:50:07.547Z,99195.88
2023-03-30T01:52:41.220Z,99202.97
2023-03-30T01:55:15.672Z,99204.72
2023-03-30T01:57:49.518Z,99209.56
2023-03-30T02:00:21.111Z,99208.31
2023-03-30T02:02:54.447Z,99214.53
2023-03-30T02:05:24.552Z,99191.34
2023-03-30T02:07:56.404Z,99167.72
2023-03-30T02:10:29.694Z,99150.72
2023-03-30T02:13:00.051Z,99159.72
2023-03-30T02:15:34.677Z,99164.31
2023-03-30T02:18:03.089Z,99184.41
2023-03-30T02:20:31.926Z,99201.63
2023-03-30T02:22:59.992Z,99213.03
2023-03-30T02:25:29.719Z,99219.81
2023-03-30T02:27:57.441Z,99222.88
2023-03-30T02:30:25.514Z,99207.28
2023-03-30T02:32:56.169Z,99196.34
2023-03-30T02:35:55.689Z,99188.72
2023-03-30T02:38:57.596Z,99192.03
2023-03-30T02:41:49.377Z,99201.13
2023-03-30T02:44:25.771Z,99208.66
2023-03-30T02:47:07.836Z,99223.03
2023-03-30T02:49:53.758Z,99231.34
2023-03-30T02:52:36.937Z,99216.34
2023-03-30T02:55:20.535Z,99207.06
2023-03-30T02:58:02.050Z,99206.22
2023-03-30T03:00:35.012Z,99205.44
2023-03-30T03:03:10.237Z,99189.91
2023-03-30T03:05:38.644Z,99190.56
2023-03-30T03:08:07.154Z,99189.38
2023-03-30T03:10:36.845Z,99174.09
2023-03-30T03:13:05.837Z,99171.97
2023-03-30T03:15:33.558Z,99160.69
2023-03-30T03:18:01.387Z,99157.13
2023-03-30T03:20:30.589Z,99150.88
2023-03-30T03:22:58.366Z,99162.19
2023-03-30T03:25:26.233Z,99146.56
2023-03-30T03:27:54.000Z,99149.22
2023-03-30T03:30:23.285Z,99147.78
2023-03-30T03:32:51.336Z,99138.16
2023-03-30T03:35:19.138Z,99128.09
2023-03-30T03:37:46.808Z,99120.72
2023-03-30T03:40:14.700Z,99122.97
2023-03-30T03:42:42.335Z,99114.75
2023-03-30T03:45:10.778Z,99107.88
2023-03-30T03:47:40.186Z,99110.53
2023-03-30T03:50:09.965Z,99105.34
2023-03-30T03:52:38.146Z,99104.75
2023-03-30T03:55:07.834Z,99109.56
2023-03-30T03:57:37.140Z,99107.44
2023-03-30T04:00:15.308Z,99104.69
2023-03-30T04:02:44.894Z,99099.97
2023-03-30T04:05:13.340Z,99096.88
2023-03-30T04:07:46.299Z,99104.63
2023-03-30T04:10:15.757Z,99097.72
2023-03-30T04:12:43.629Z,99090.59
2023-03-30T04:15:11.861Z,99085.94
2023-03-30T04:17:39.821Z,99095.03
2023-03-30T04:20:12.157Z,99108.63
2023-03-30T04:22:41.956Z,99105.38
2023-03-30T04:25:11.610Z,99090.03
2023-03-30T04:27:42.712Z,99089.88
2023-03-30T04:30:11.758Z,99090.84
2023-03-30T04:32:41.173Z,99100.72
2023-03-30T04:35:11.180Z,99102.97
2023-03-30T04:37:42.184Z,99095.84
2023-03-30T04:40:11.028Z,99087.50
2023-03-30T04:42:40.804Z,99080.09
2023-03-30T04:45:10.360Z,99078.81
2023-03-30T04:47:38.054Z,99082.91
2023-03-30T04:50:06.574Z,99082.97
2023-03-30T04:52:35.743Z,99093.34
2023-03-30T04:55:03.487Z,99097.16
2023-03-30T04:57:31.498Z,99091.00
2023-03-30T04:59:59.162Z,99091.31
2023-03-30T05:02:27.122Z,99097.78
2023-03-30T05:04:54.816Z,99104.38
2023-03-30T05:07:22.690Z,99116.63
2023-03-30T05:09:52.537Z,99114.16
2023-03-30T05:12:21.515Z,99121.13
2023-03-30T05:14:49.279Z,99130.13
2023-03-30T05:17:17.143Z,99138.13
2023-03-30T05:19:44.889Z,99134.91
2023-03-30T05:22:12.653Z,99132.25
2023-03-30T05:24:40.587Z,99142.88
2023-03-30T05:27:09.669Z,99147.38
2023-03-30T05:29:37.342Z,99186.28
2023-03-30T05:32:05.144Z,99217.19
2023-03-30T05:34:32.892Z,99226.81
2023-03-30T05:37:01.117Z,99237.47
2023-03-30T05:39:28.785Z,99226.19
2023-03-30T05:41:56.480Z,99223.31
2023-03-30T05:44:25.910Z,99222.28
2023-03-30T05:46:54.017Z,99226.75
2023-03-30T05:49:21.852Z,99226.13
2023-03-30T05:51:49.604Z,99225.50
2023-03-30T05:54:17.527Z,99221.34
2023-03-30T05:56:45.353Z,99219.31
2023-03-30T05:59:13.936Z,99221.81
2023-03-30T06:01:42.957Z,99224.63
2023-03-30T06:04:10.786Z,99222.16
2023-03-30T06:06:38.593Z,99220.31
2023-03-30T06:09:06.598Z,99236.66
2023-03-30T06:11:34.948Z,99229.25
2023-03-30T06:14:02.727Z,99241.34
2023-03-30T06:16:31.772Z,99237.41
2023-03-30T06:19:00.940Z,99237.19
2023-03-30T06:21:28.879Z,99227.75
2023-03-30T06:23:56.476Z,99217.72
2023-03-30T06:26:24.332Z,99213.19
2023-03-30T06:28:51.986Z,99200.88
2023-03-30T06:31:19.701Z,99192.69
2023-03-30T06:33:47.423Z,99180.03
2023-03-30T06:36:16.743Z,99177.97
2023-03-30T06:38:44.711Z,99172.84
2023-03-30T06:41:12.873Z,99172.44
2023-03-30T06:43:41.713Z,99162.84
2023-03-30T06:46:11.271Z,99151.84
2023-03-30T06:48:39.463Z,99149.19
2023-03-30T06:51:08.734Z,99149.59
2023-03-30T06:53:37.778Z,99165.56
2023-03-30T06:56:05.871Z,99155.09
2023-03-30T06:58:34.295Z,99167.03
2023-03-30T07:01:10.598Z,99162.50
2023-03-30T07:03:38.482Z,99160.28
2023-03-30T07:06:07.719Z,99158.84
2023-03-30T07:08:37.643Z,99151.88
2023-03-30T07:11:07.174Z,99162.75
2023-03-30T07:13:35.441Z,99155.19
2023-03-30T07:16:03.372Z,99175.84
2023-03-30T07:18:31.344Z,99160.94
2023-03-30T07:20:59.221Z,99139.72
2023-03-30T07:23:27.089Z,99145.06
2023-03-30T07:25:56.187Z,99156.31
2023-03-30T07:28:23.838Z,99160.63
2023-03-30T07:30:52.655Z,99166.75
2023-03-30T07:33:21.789Z,99159.63
2023-03-30T07:35:50.023Z,99156.72
2023-03-30T07:38:19.092Z,99130.13
2023-03-30T07:40:47.087Z,99149.78
2023-03-30T07:43:16.143Z,99177.81
2023-03-30T07:45:43.856Z,99173.97
2023-03-30T07:48:11.593Z,99163.09
2023-03-30T07:50:39.463Z,99155.34
2023-03-30T07:53:07.700Z,99156.38
2023-03-30T07:55:35.952Z,99152.50
2023-03-30T07:58:04.450Z,99153.50
2023-03-30T08:00:35.625Z,99170.09
2023-03-30T08:03:03.832Z,99159.47
2023-03-30T08:05:31.563Z,99165.63
2023-03-30T08:07:59.171Z,99169.88
2023-03-30T08:10:27.343Z,99173.34
2023-03-30T08:12:55.067Z,99146.03
2023-03-30T08:15:22.723Z,99169.41
2023-03-30T08:17:51.857Z,99182.78
2023-03-30T08:20:19.687Z,99185.84
2023-03-30T08:22:48.582Z,99175.06
2023-03-30T08:25:16.284Z,99169.16
2023-03-30T08:27:44.044Z,99171.03
2023-03-30T08:30:13.350Z,99199.84
2023-03-30T08:32:41.102Z,99205.84
2023-03-30T08:35:11.532Z,99213.25
2023-03-30T08:37:39.267Z,99201.16
2023-03-30T08:40:10.517Z,99168.72
2023-03-30T08:42:52.752Z,99171.81
2023-03-30T08:45:20.637Z,99169.16
2023-03-30T08:47:50.487Z,99176.03
2023-03-30T08:50:29.680Z,99141.59
2023-03-30T08:52:57.453Z,99134.94
2023-03-30T08:55:31.153Z,99147.06
2023-03-30T08:58:03.319Z,99153.56
2023-03-30T09:00:39.988Z,99147.09
2023-03-30T09:03:16.824Z,99129.25
2023-03-30T09:05:52.574Z,99124.22
2023-03-30T09:08:23.019Z,99121.84
2023-03-30T09:10:57.541Z,99138.16
2023-03-30T09:13:29.146Z,99150.78
2023-03-30T09:16:04.386Z,99145.06
2023-03-30T09:18:34.709Z,99148.81
2023-03-30T09:21:06.706Z,99152.06
2023-03-30T09:23:36.116Z,99121.28
2023-03-30T09:26:15.634Z,99141.88
2023-03-30T09:28:50.638Z,99146.06
2023-03-30T09:31:22.224Z,99135.56
2023-03-30T09:33:58.391Z,99132.81
2023-03-30T09:36:36.572Z,99129.34
2023-03-30T09:39:10.791Z,99142.00
2023-03-30T09:41:52.494Z,99133.66
2023-03-30T09:44:25.362Z,99149.84
2023-03-30T09:46:58.251Z,99154.22
2023-03-30T09:49:28.786Z,99142.31
2023-03-30T09:52:03.775Z,99152.44
2023-03-30T09:54:38.862Z,99148.91
2023-03-30T09:57:07.096Z,99129.34
2023-03-30T09:59:36.244Z,99158.16
2023-03-30T10:02:19.230Z,99150.88
2023-03-30T10:04:58.323Z,99161.78
2023-03-30T10:07:29.242Z,99162.66
2023-03-30T10:09:58.815Z,99173.66
2023-03-30T10:12:27.109Z,99166.16
2023-03-30T10:14:57.017Z,99186.88
2023-03-30T10:17:27.191Z,99188.19
2023-03-30T10:20:14.827Z,99176.78
2023-03-30T10:22:52.386Z,99187.38
2023-03-30T10:25:23.677Z,99180.06
2023-03-30T10:27:53.568Z,99183.03
2023-03-30T10:30:23.512Z,99179.03
2023-03-30T10:32:52.437Z,99171.19
2023-03-30T10:35:24.130Z,99193.22
2023-03-30T10:37:56.478Z,99190.34
2023-03-30T10:40:28.479Z,99177.50
2023-03-30T10:42:58.887Z,99187.31
2023-03-30T10:45:32.854Z,99183.41
2023-03-30T10:48:13.186Z,99173.69
2023-03-30T10:50:49.231Z,99166.03
2023-03-30T10:53:34.094Z,99173.81
2023-03-30T10:56:07.839Z,99175.53
2023-03-30T10:58:49.194Z,99196.31
2023-03-30T11:01:23.329Z,99166.81
2023-03-30T11:03:57.356Z,99172.66
2023-03-30T11:06:30.877Z,99183.47
2023-03-30T11:09:03.283Z,99191.78
2023-03-30T11:11:36.570Z,99191.63
2023-03-30T11:14:08.508Z,99184.81
2023-03-30T11:16:45.696Z,99185.97
2023-03-30T11:19:19.253Z,99171.97
2023-03-30T11:21:56.773Z,99171.72
2023-03-30T11:24:29.023Z,99167.50
2023-03-30T11:27:04.048Z,99175.13
2023-03-30T11:29:38.325Z,99184.81
2023-03-30T11:32:20.421Z,99169.44
2023-03-30T11:34:55.853Z,99147.34
2023-03-30T11:37:30.731Z,99157.63
2023-03-30T11:40:10.167Z,99173.84
2023-03-30T11:42:38.820Z,99158.91
2023-03-30T11:45:21.923Z,99162.59
2023-03-30T11:48:06.637Z,99165.66
2023-03-30T11:50:50.622Z,99157.81
2023-03-30T11:53:28.319Z,99163.00
2023-03-30T11:56:06.357Z,99163.84
2023-03-30T11:58:37.644Z,99161.72
2023-03-30T12:01:35.429Z,99169.69
2023-03-30T12:04:09.082Z,99150.53
2023-03-30T12:06:40.572Z,99162.56
2023-03-30T12:09:28.841Z,99170.81
2023-03-30T12:12:06.147Z,99167.22
2023-03-30T12:14:54.704Z,99164.25
2023-03-30T12:17:30.560Z,99170.72
2023-03-30T12:20:04.749Z,99161.19
2023-03-30T12:22:38.756Z,99175.50
2023-03-30T12:25:19.608Z,99178.25
2023-03-30T12:27:59.668Z,99160.41
2023-03-30T12:30:30.827Z,99181.41
2023-03-30T12:33:11.617Z,99190.81
2023-03-30T12:36:00.193Z,99218.69
2023-03-30T12:38:38.065Z,99200.44
2023-03-30T12:41:14.627Z,99210.34
2023-03-30T12:44:04.079Z,99178.50
2023-03-30T12:46:38.131Z,99166.13
2023-03-30T12:49:15.457Z,99171.66
2023-03-30T12:51:58.126Z,99160.72
2023-03-30T12:54:53.575Z,99163.47
2023-03-30T12:57:34.978Z,99149.03
2023-03-30T13:00:48.032Z,99152.19
2023-03-30T13:03:38.206Z,99127.84
2023-03-30T13:06:11.573Z,99139.44
2023-03-30T13:08:41.496Z,99137.72
2023-03-30T13:11:14.868Z,99148.72
2023-03-30T13:13:50.652Z,99156.00
2023-03-30T13:16:50.394Z,99136.50
2023-03-30T13:19:27.585Z,99145.38
2023-03-30T13:22:05.630Z,99138.84
2023-03-30T13:24:41.091Z,99151.75
2023-03-30T13:27:23.057Z,99148.44
2023-03-30T13:29:55.492Z,99165.97
2023-03-30T13:32:32.022Z,99147.19
2023-03-30T13:35:29.932Z,99147.38
2023-03-30T13:38:40.111Z,99162.53
2023-03-30T13:41:21.044Z,99144.88
2023-03-30T13:44:04.164Z,99157.06
2023-03-30T13:46:36.669Z,99152.28
2023-03-30T13:49:16.066Z,99144.81
2023-03-30T13:51:46.596Z,99129.84
2023-03-30T13:54:18.097Z,99135.81
2023-03-30T13:56:49.529Z,99159.94
2023-03-30T13:59:19.457Z,99164.19
2023-03-30T14:01:52.009Z,99184.50
2023-03-30T14:04:20.976Z,99219.06
2023-03-30T14:06:52.392Z,99231.03
2023-03-30T14:09:23.304Z,99207.13
2023-03-30T14:11:53.406Z,99200.38
2023-03-30T14:14:25.331Z,99186.03
2023-03-30T14:16:53.434Z,99189.22
2023-03-30T14:19:25.330Z,99175.25
2023-03-30T14:21:59.096Z,99184.31
2023-03-30T14:24:32.293Z,99184.81
2023-03-30T14:27:04.611Z,99181.09
2023-03-30T14:29:32.462Z,99176.75
2023-03-30T14:34:34.961Z,99157.41
2023-03-30T14:37:06.183Z,99160.69
2023-03-30T14:39:38.526Z,99149.69
2023-03-30T14:42:13.777Z,99160.16
2023-03-30T14:44:42.046Z,99160.63
2023-03-30T14:47:09.796Z,99159.28
2023-03-30T14:49:38.172Z,99154.19
2023-03-30T14:52:16.445Z,99160.41
2023-03-30T14:54:54.496Z,99150.78
2023-03-30T14:57:31.336Z,99163.84
2023-03-30T15:00:08.230Z,99151.50
2023-03-30T15:02:37.612Z,99166.25
2023-03-30T15:05:09.262Z,99149.75
2023-03-30T15:07:38.404Z,99153.56
2023-03-30T15:10:07.284Z,99162.31
2023-03-30T15:12:37.781Z,99151.84
2023-03-30T15:15:08.656Z,99161.41
2023-03-30T15:17:37.818Z,99154.28
2023-03-30T15:20:07.842Z,99159.88
2023-03-30T15:22:41.098Z,99153.91
2023-03-30T15:25:12.740Z,99163.94
2023-03-30T15:27:44.092Z,99184.09
2023-03-30T15:30:22.732Z,99186.78
2023-03-30T15:32:56.028Z,99175.56
2023-03-30T15:35:25.174Z,99186.44
2023-03-30T15:37:59.134Z,99186.84
2023-03-30T15:40:33.466Z,99190.41
2023-03-30T15:43:18.862Z,99200.16
2023-03-30T15:45:49.445Z,99194.84
2023-03-30T15:48:20.864Z,99197.25
2023-03-30T15:50:54.058Z,99204.63
2023-03-30T15:53:34.874Z,99203.06
2023-03-30T15:56:04.131Z,99196.28
2023-03-30T15:58:34.159Z,99200.63
2023-03-30T16:01:04.676Z,99213.03
2023-03-30T16:03:36.195Z,99206.03
2023-03-30T16:06:03.884Z,99214.56
2023-03-30T16:08:32.962Z,99214.38
2023-03-30T16:11:01.167Z,99215.19
2023-03-30T16:13:29.216Z,99221.13
2023-03-30T16:15:57.772Z,99221.22
2023-03-30T16:18:25.602Z,99209.00
2023-03-30T16:20:53.273Z,99203.13
2023-03-30T16:23:21.038Z,99229.31
2023-03-30T16:25:50.045Z,99223.09
2023-03-30T16:28:18.606Z,99231.88
2023-03-30T16:30:48.889Z,99229.81
2023-03-30T16:33:16.681Z,99229.78
2023-03-30T16:35:44.676Z,99231.81
2023-03-30T16:38:16.371Z,99252.03
2023-03-30T16:40:46.237Z,99247.56
2023-03-30T16:43:15.225Z,99243.97
2023-03-30T16:45:42.946Z,99251.53
2023-03-30T16:48:13.131Z,99246.25
2023-03-30T16:50:42.369Z,99257.94
2023-03-30T16:53:11.527Z,99251.97
2023-03-30T16:55:40.307Z,99243.16
2023-03-30T16:58:09.717Z,99252.59
2023-03-30T17:00:42.008Z,99266.72
2023-03-30T17:03:10.448Z,99246.44
2023-03-30T17:05:38.645Z,99239.50
2023-03-30T17:08:07.851Z,99244.19
2023-03-30T17:10:40.305Z,99240.50
2023-03-30T17:13:09.202Z,99245.41
2023-03-30T17:15:39.092Z,99239.69
2023-03-30T17:18:09.034Z,99244.59
2023-03-30T17:20:39.295Z,99251.56
2023-03-30T17:23:10.115Z,99246.06
2023-03-30T17:25:39.893Z,99243.34
2023-03-30T17:28:09.493Z,99247.44
2023-03-30T17:30:40.690Z,99244.00
2023-03-30T17:33:10.782Z,99245.81
2023-03-30T17:35:39.258Z,99246.44
2023-03-30T17:38:09.134Z,99249.28
2023-03-30T17:40:39.059Z,99251.56
2023-03-30T17:43:07.293Z,99246.63
2023-03-30T17:45:37.228Z,99254.81
2023-03-30T17:48:08.416Z,99258.47
2023-03-30T17:50:39.333Z,99254.06
2023-03-30T17:53:07.459Z,99267.75
2023-03-30T17:55:35.047Z,99267.75
2023-03-30T17:58:03.096Z,99281.28
2023-03-30T18:00:32.678Z,99296.44
2023-03-30T18:03:01.530Z,99294.00
2023-03-30T18:05:32.679Z,99293.56
2023-03-30T18:08:00.413Z,99282.50
2023-03-30T18:10:30.083Z,99279.25
2023-03-30T18:12:58.044Z,99278.38
2023-03-30T18:15:27.920Z,99280.88
2023-03-30T18:17:57.089Z,99278.56
2023-03-30T18:20:28.157Z,99281.66
2023-03-30T18:22:57.777Z,99289.66
2023-03-30T18:25:32.737Z,99280.66
2023-03-30T18:28:01.506Z,99289.09
2023-03-30T18:30:33.042Z,99309.94
2023-03-30T18:33:01.494Z,99346.28
2023-03-30T18:35:30.741Z,99354.38
2023-03-30T18:38:00.052Z,99354.63
2023-03-30T18:40:32.843Z,99338.94
2023-03-30T18:43:01.513Z,99361.06
2023-03-30T18:45:31.266Z,99349.66
2023-03-30T18:47:59.765Z,99332.09
2023-03-30T18:50:36.771Z,99332.69
2023-03-30T18:53:08.166Z,99327.69
2023-03-30T18:55:37.757Z,99319.66
2023-03-30T18:58:07.362Z,99316.88
2023-03-30T19:00:36.373Z,99313.97
2023-03-30T19:03:04.686Z,99300.13
2023-03-30T19:05:34.490Z,99304.16
2023-03-30T19:08:02.661Z,99293.19
2023-03-30T19:10:33.471Z,99298.19
2023-03-30T19:13:01.363Z,99290.38
2023-03-30T19:15:31.378Z,99289.78
2023-03-30T19:17:59.210Z,99285.22
2023-03-30T19:20:28.313Z,99281.91
2023-03-30T19:22:56.735Z,99282.50
2023-03-30T19:25:26.910Z,99277.38
2023-03-30T19:28:02.528Z,99281.81
2023-03-30T19:30:34.216Z,99282.59
2023-03-30T19:33:05.425Z,99285.09
2023-03-30T19:35:34.017Z,99286.16
2023-03-30T19:38:02.090Z,99283.94
2023-03-30T19:40:29.867Z,99282.59
2023-03-30T19:42:58.981Z,99290.78
2023-03-30T19:45:26.651Z,99289.44
2023-03-30T19:47:54.396Z,99289.81
2023-03-30T19:50:24.898Z,99290.22
2023-03-30T19:52:54.342Z,99283.03
2023-03-30T19:55:22.584Z,99293.00
2023-03-30T19:57:50.614Z,99282.25
2023-03-30T20:00:20.870Z,99288.94
2023-03-30T20:02:50.959Z,99298.34
2023-03-30T20:05:20.699Z,99287.22
2023-03-30T20:07:48.484Z,99294.81
2023-03-30T20:10:19.840Z,99282.47
2023-03-30T20:12:48.378Z,99283.16
2023-03-30T20:15:16.779Z,99281.19
2023-03-30T20:17:45.829Z,99276.53
2023-03-30T20:20:17.085Z,99282.13
2023-03-30T20:22:46.542Z,99281.25
2023-03-30T20:25:16.684Z,99288.78
2023-03-30T20:27:44.370Z,99307.72
2023-03-30T20:30:18.832Z,99316.69
2023-03-30T20:33:03.951Z,99327.72
2023-03-30T20:35:35.257Z,99323.25
2023-03-30T20:38:04.562Z,99311.09
2023-03-30T20:40:32.873Z,99281.16
2023-03-30T20:43:02.189Z,99266.59
2023-03-30T20:45:30.512Z,99255.78
2023-03-30T20:48:05.940Z,99260.91
2023-03-30T20:50:34.963Z,99264.16
2023-03-30T20:53:02.707Z,99254.97
2023-03-30T20:55:30.349Z,99265.00
2023-03-30T20:57:57.964Z,99265.59
2023-03-30T21:00:25.689Z,99273.34
2023-03-30T21:02:53.354Z,99262.50
2023-03-30T21:05:22.341Z,99270.59
2023-03-30T21:07:50.133Z,99268.25
2023-03-30T21:10:18.112Z,99266.34
2023-03-30T21:12:45.748Z,99267.59
2023-03-30T21:15:14.023Z,99260.22
2023-03-30T21:17:41.770Z,99254.53
2023-03-30T21:20:11.642Z,99252.44
2023-03-30T21:22:40.718Z,99246.97
2023-03-30T21:25:09.019Z,99251.94
2023-03-30T21:27:36.746Z,99252.63
2023-03-30T21:30:05.200Z,99247.88
2023-03-30T21:32:32.924Z,99244.00
2023-03-30T21:35:00.660Z,99236.34
2023-03-30T21:37:28.268Z,99234.38
2023-03-30T21:39:57.523Z,99226.50
2023-03-30T21:42:25.208Z,99219.75
2023-03-30T21:44:52.835Z,99216.41
2023-03-30T21:47:20.518Z,99203.09
2023-03-30T21:49:48.148Z,99199.16
2023-03-30T21:52:15.807Z,99196.69
2023-03-30T21:54:45.209Z,99204.75
2023-03-30T21:57:14.376Z,99200.59
2023-03-30T21:59:42.100Z,99191.63
2023-03-30T22:02:09.770Z,99185.81
2023-03-30T22:04:37.430Z,99187.59
2023-03-30T22:07:05.293Z,99187.53
2023-03-30T22:09:32.952Z,99189.53
2023-03-30T22:12:00.568Z,99192.44
2023-03-30T22:14:29.693Z,99181.91
2023-03-30T22:16:57.803Z,99174.94
2023-03-30T22:19:25.677Z,99173.56
2023-03-30T22:21:53.522Z,99176.06
2023-03-30T22:24:21.488Z,99167.66
2023-03-30T22:26:49.185Z,99169.94
2023-03-30T22:29:20.714Z,99166.34
2023-03-30T22:31:51.417Z,99164.66
2023-03-30T22:34:19.107Z,99152.59
2023-03-30T22:36:46.964Z,99153.53
2023-03-30T22:39:14.732Z,99147.00
2023-03-30T22:41:42.400Z,99147.31
2023-03-30T22:44:11.148Z,99142.88
2023-03-30T22:46:38.862Z,99131.47
2023-03-30T22:49:07.902Z,99118.22
2023-03-30T22:51:38.051Z,99111.25
2023-03-30T22:54:06.211Z,99108.97
2023-03-30T22:56:33.941Z,99109.50
2023-03-30T22:59:01.886Z,99109.72
2023-03-30T23:01:32.255Z,99095.34
2023-03-30T23:04:00.494Z,99096.59
2023-03-30T23:06:29.656Z,99091.75
2023-03-30T23:08:57.642Z,99095.94
2023-03-30T23:11:26.447Z,99083.97
2023-03-30T23:13:54.368Z,99083.72
2023-03-30T23:16:22.744Z,99081.50
2023-03-30T23:18:51.378Z,99077.84
2023-03-30T23:21:22.036Z,99067.25
2023-03-30T23:23:51.498Z,99060.53
2023-03-30T23:26:19.450Z,99062.81
2023-03-30T23:28:47.147Z,99047.25
2023-03-30T23:31:16.515Z,99044.03
2023-03-30T23:33:45.510Z,99039.94
2023-03-30T23:36:14.252Z,99046.69
2023-03-30T23:38:42.050Z,99033.81
2023-03-30T23:41:13.868Z,99037.28
2023-03-30T23:43:41.537Z,99027.69
2023-03-30T23:46:09.918Z,99024.03
2023-03-30T23:48:37.888Z,99020.56
2023-03-30T23:51:06.212Z,99015.44
2023-03-30T23:53:34.097Z,99018.09
2023-03-30T23:56:05.704Z,99006.66
2023-03-30T23:58:35.030Z,99005.44
